Time;durP1;ratioP1;P1;durP2;ratioP2;P2;SDS_P1;SDS_P2;PMS_P1;PMS_P2;Temp;Humidity;BMP_temperature;BMP_pressure;BME280_temperature;BME280_humidity;BME280_pressure;Samples;Min_cycle;Max_cycle;Signal;HPM_P1;HPM_P2
2022/04/04 00:00:42;;;;;;;10.63;5.27;;;;;;;4.86;42.48;100203.75;4915517;28;96851;-84
2022/04/04 00:03:08;;;;;;;8.73;4.87;;;;;;;4.97;42.59;100220.97;4922098;28;101227;-84
2022/04/04 00:05:34;;;;;;;10.33;5.40;;;;;;;5.03;42.80;100221.75;4909260;28;101700;-83
2022/04/04 00:08:00;;;;;;;9.93;5.27;;;;;;;4.89;42.65;100195.94;4918406;28;97097;-83
2022/04/04 00:10:25;;;;;;;9.10;4.87;;;;;;;4.88;42.99;100202.00;4935134;28;96944;-83
2022/04/04 00:12:51;;;;;;;10.60;5.27;;;;;;;4.92;42.99;100219.28;4917918;28;98575;-85
2022/04/04 00:15:17;;;;;;;8.80;4.80;;;;;;;4.95;43.27;100209.69;4893173;28;101904;-83
2022/04/04 00:17:42;;;;;;;9.93;4.67;;;;;;;4.99;43.04;100208.78;4913001;28;97115;-84
2022/04/04 00:20:10;;;;;;;10.57;5.50;;;;;;;5.02;42.94;100217.44;4921320;28;97195;-84
2022/04/04 00:22:35;;;;;;;12.00;4.80;;;;;;;4.90;43.32;100190.69;4918365;28;101226;-84
2022/04/04 00:25:01;;;;;;;8.70;4.40;;;;;;;4.92;43.88;100204.53;4925424;28;100071;-84
2022/04/04 00:27:27;;;;;;;9.60;4.73;;;;;;;4.88;43.59;100196.78;4929046;28;97675;-85
2022/04/04 00:29:53;;;;;;;8.40;4.40;;;;;;;4.89;43.68;100198.53;4933322;28;96958;-88
2022/04/04 00:32:18;;;;;;;7.43;4.10;;;;;;;4.95;43.78;100206.25;4918428;28;98051;-85
2022/04/04 00:34:44;;;;;;;8.53;4.13;;;;;;;4.89;44.02;100199.38;4943370;28;100881;-84
2022/04/04 00:37:09;;;;;;;9.47;4.47;;;;;;;4.95;44.11;100203.66;4934160;28;96681;-83
2022/04/04 00:39:35;;;;;;;7.30;3.60;;;;;;;4.93;44.43;100208.00;4918265;28;97257;-84
2022/04/04 00:42:01;;;;;;;6.87;4.10;;;;;;;4.87;44.26;100192.47;4951453;28;98092;-84
2022/04/04 00:44:26;;;;;;;6.10;4.03;;;;;;;4.89;44.34;100203.72;4952089;28;97404;-83
2022/04/04 00:46:52;;;;;;;8.43;4.73;;;;;;;4.80;44.18;100181.28;4914896;28;96856;-86
2022/04/04 00:49:17;;;;;;;8.63;4.70;;;;;;;4.98;44.38;100207.06;4930669;28;96893;-84
2022/04/04 00:51:43;;;;;;;6.70;4.27;;;;;;;4.83;44.55;100178.66;4910777;28;97649;-84
2022/04/04 00:54:08;;;;;;;9.93;4.13;;;;;;;4.93;44.96;100197.59;4911486;28;101177;-84
2022/04/04 00:56:37;;;;;;;8.00;4.73;;;;;;;4.85;44.87;100179.47;4936969;28;97368;-85
2022/04/04 00:59:05;;;;;;;8.33;4.43;;;;;;;4.94;45.02;100188.91;4899336;28;96785;-84
2022/04/04 01:01:32;;;;;;;8.13;4.20;;;;;;;4.94;45.28;100186.28;4931707;28;98462;-85
2022/04/04 01:03:58;;;;;;;9.37;4.80;;;;;;;4.89;45.72;100182.91;4887129;28;101566;-84
2022/04/04 01:06:24;;;;;;;7.80;4.27;;;;;;;4.88;45.38;100175.97;4905001;28;97505;-83
2022/04/04 01:08:49;;;;;;;9.07;4.77;;;;;;;4.91;45.87;100187.19;4906649;28;96949;-84
2022/04/04 01:11:15;;;;;;;8.23;4.90;;;;;;;4.90;45.71;100182.88;4900804;28;100872;-84
2022/04/04 01:13:48;;;;;;;7.40;4.00;;;;;;;4.71;45.85;100156.25;4898574;28;100953;-83
2022/04/04 01:16:13;;;;;;;9.17;5.27;;;;;;;4.65;45.82;100143.31;4910568;28;96777;-83
2022/04/04 01:18:40;;;;;;;7.53;4.63;;;;;;;4.79;46.19;100178.69;4933763;28;96899;-84
2022/04/04 01:21:06;;;;;;;8.93;5.10;;;;;;;4.81;45.97;100177.81;4921719;28;97425;-84
2022/04/04 01:23:40;;;;;;;7.30;3.93;;;;;;;4.80;46.53;100170.00;4889327;28;101240;-84
2022/04/04 01:26:07;;;;;;;7.23;4.60;;;;;;;4.83;46.01;100173.44;4920139;28;96922;-84
2022/04/04 01:28:33;;;;;;;6.60;3.93;;;;;;;4.81;46.59;100169.16;4909793;28;96959;-84
2022/04/04 01:30:59;;;;;;;7.93;3.97;;;;;;;4.81;46.39;100167.41;4912447;28;101630;-85
2022/04/04 01:33:25;;;;;;;8.53;4.50;;;;;;;4.81;46.15;100163.94;4895780;28;102152;-84
2022/04/04 01:35:51;;;;;;;6.17;3.97;;;;;;;4.72;46.17;100144.97;4898285;28;98113;-83
2022/04/04 01:38:17;;;;;;;9.67;4.77;;;;;;;4.79;45.98;100158.75;4897842;28;97225;-83
2022/04/04 01:40:42;;;;;;;8.33;4.40;;;;;;;4.82;46.37;100153.50;4914440;28;99564;-85
2022/04/04 01:43:09;;;;;;;8.97;5.27;;;;;;;4.81;46.35;100158.75;4916190;28;101511;-84
2022/04/04 01:48:19;;;;;;;7.23;4.53;;;;;;;4.74;46.25;100148.44;4949794;28;97101;-84
2022/04/04 01:50:44;;;;;;;8.13;4.37;;;;;;;4.73;46.52;100145.81;4936291;28;101308;-84
2022/04/04 01:53:29;;;;;;;8.23;4.47;;;;;;;4.67;46.07;100112.97;4934609;28;100903;-84
2022/04/04 01:55:57;;;;;;;8.00;4.53;;;;;;;4.79;46.02;100139.69;4919424;28;97698;-84
2022/04/04 01:58:23;;;;;;;6.40;4.57;;;;;;;4.64;45.99;100114.75;4941547;28;97067;-83
2022/04/04 02:00:49;;;;;;;7.20;4.70;;;;;;;4.80;46.02;100144.88;4947928;28;97692;-84
2022/04/04 02:03:15;;;;;;;6.93;4.57;;;;;;;4.79;46.17;100153.53;4930647;28;99171;-84
2022/04/04 02:05:40;;;;;;;8.60;4.97;;;;;;;4.63;45.68;100118.25;4933268;28;96877;-83
2022/04/04 02:08:06;;;;;;;6.33;4.80;;;;;;;4.77;45.56;100142.31;4938174;28;96858;-83
2022/04/04 02:10:32;;;;;;;10.03;4.60;;;;;;;4.78;45.80;100141.44;4925095;28;100310;-85
2022/04/04 02:12:58;;;;;;;7.03;4.37;;;;;;;4.78;45.66;100144.03;4917231;28;101238;-85
2022/04/04 02:15:24;;;;;;;5.70;4.23;;;;;;;4.68;45.70;100119.00;4922752;28;96644;-83
2022/04/04 02:17:50;;;;;;;6.70;4.67;;;;;;;4.75;45.43;100131.06;4921518;28;96817;-84
2022/04/04 02:20:16;;;;;;;7.53;4.63;;;;;;;4.83;45.76;100149.16;4935938;28;98143;-83
2022/04/04 02:22:42;;;;;;;6.33;4.27;;;;;;;4.74;45.51;100129.34;4936237;28;97384;-84
2022/04/04 02:25:08;;;;;;;8.00;4.57;;;;;;;4.81;45.70;100135.34;4930520;28;97316;-84
2022/04/04 02:27:34;;;;;;;8.00;5.40;;;;;;;4.91;45.48;100135.16;4918544;28;96883;-83
2022/04/04 02:30:00;;;;;;;8.27;4.40;;;;;;;4.83;46.00;100126.63;4922613;28;100314;-83
2022/04/04 02:32:26;;;;;;;5.53;3.93;;;;;;;4.80;46.02;100131.88;4936888;28;97319;-84
2022/04/04 02:34:52;;;;;;;6.57;4.23;;;;;;;4.69;46.38;100123.34;4920596;28;96629;-84
2022/04/04 02:37:18;;;;;;;7.03;4.43;;;;;;;4.76;46.26;100128.44;4956568;28;96747;-83
2022/04/04 02:39:43;;;;;;;8.00;4.40;;;;;;;4.63;46.49;100106.09;4932829;28;97433;-84
2022/04/04 02:42:09;;;;;;;7.10;4.57;;;;;;;4.73;46.55;100125.88;4925154;28;97852;-84
2022/04/04 02:44:35;;;;;;;6.70;4.30;;;;;;;4.79;46.63;100122.34;4933711;28;96725;-84
2022/04/04 02:47:01;;;;;;;9.07;4.47;;;;;;;4.81;46.68;100133.59;4919848;28;98866;-86
2022/04/04 02:49:29;;;;;;;6.07;4.20;;;;;;;4.83;46.35;100118.84;4884767;28;101503;-83
2022/04/04 02:51:55;;;;;;;10.87;4.87;;;;;;;4.86;46.53;100117.91;4887345;28;100883;-84
2022/04/04 02:54:21;;;;;;;9.27;4.47;;;;;;;4.82;46.51;100121.44;4913845;28;96761;-84
2022/04/04 02:56:47;;;;;;;8.03;4.70;;;;;;;4.78;46.52;100119.78;4933136;28;97243;-84
2022/04/04 02:59:12;;;;;;;9.40;4.60;;;;;;;4.84;46.99;100122.28;4915337;28;97544;-84
2022/04/04 03:01:38;;;;;;;5.83;4.30;;;;;;;4.75;47.02;100107.66;4924921;28;98218;-84
2022/04/04 03:04:04;;;;;;;7.27;4.23;;;;;;;4.85;47.13;100116.19;4911150;28;96849;-87
2022/04/04 03:06:30;;;;;;;7.63;4.67;;;;;;;4.69;47.26;100103.41;4922180;28;96823;-85
2022/04/04 03:08:56;;;;;;;9.37;5.77;;;;;;;4.83;47.52;100120.53;4918408;28;98034;-84
2022/04/04 03:11:21;;;;;;;10.27;5.83;;;;;;;4.82;47.35;100111.03;4925884;28;101183;-83
2022/04/04 03:13:47;;;;;;;9.43;5.23;;;;;;;4.85;47.44;100111.84;4907464;28;96683;-84
2022/04/04 03:16:13;;;;;;;9.30;4.97;;;;;;;4.85;47.33;100117.06;4899701;28;97485;-84
2022/04/04 03:18:39;;;;;;;10.00;5.30;;;;;;;4.74;47.79;100091.22;4901144;28;101464;-83
2022/04/04 03:21:06;;;;;;;8.77;4.70;;;;;;;4.84;47.41;100107.53;4919489;28;99236;-87
2022/04/04 03:23:33;;;;;;;8.80;4.90;;;;;;;4.89;47.73;100117.88;4919649;28;96651;-84
2022/04/04 03:25:59;;;;;;;6.83;4.87;;;;;;;4.85;47.66;100111.00;4914073;28;97232;-84
2022/04/04 03:28:25;;;;;;;8.30;4.70;;;;;;;4.73;47.91;100086.00;4910841;28;101843;-85
2022/04/04 03:30:51;;;;;;;7.40;5.20;;;;;;;4.86;48.10;100103.19;4912733;28;97453;-84
2022/04/04 03:33:17;;;;;;;9.37;5.37;;;;;;;4.80;48.17;100094.59;4902044;28;97191;-84
2022/04/04 03:35:43;;;;;;;8.77;4.40;;;;;;;4.81;48.24;100099.78;4942403;28;96937;-83
2022/04/04 03:38:10;;;;;;;6.50;4.60;;;;;;;4.69;48.14;100074.81;4899769;28;97635;-85
2022/04/04 03:40:37;;;;;;;9.40;5.47;;;;;;;4.57;48.45;100050.69;4915932;28;97500;-84
2022/04/04 03:43:03;;;;;;;7.63;4.87;;;;;;;4.69;48.65;100074.81;4899992;28;96822;-84
2022/04/04 03:45:29;;;;;;;7.63;5.00;;;;;;;4.88;48.60;100103.16;4914894;28;97024;-84
2022/04/04 03:47:56;;;;;;;8.93;4.77;;;;;;;4.81;48.97;100099.78;4915905;28;101629;-84
2022/04/04 03:50:22;;;;;;;8.63;4.50;;;;;;;4.68;48.54;100073.09;4899027;28;101369;-84
2022/04/04 03:52:53;;;;;;;6.17;4.10;;;;;;;4.86;48.93;100102.28;4916150;28;96713;-83
2022/04/04 03:55:21;;;;;;;6.27;4.97;;;;;;;4.85;48.80;100096.25;4900301;28;96638;-83
2022/04/04 03:57:48;;;;;;;11.07;4.67;;;;;;;4.86;49.13;100097.09;4923484;28;101338;-83
2022/04/04 04:00:14;;;;;;;8.23;4.80;;;;;;;4.85;48.85;100087.59;4934267;28;101657;-84
2022/04/04 04:02:40;;;;;;;8.80;5.40;;;;;;;4.73;49.13;100071.28;4901903;28;96823;-83
2022/04/04 04:05:07;;;;;;;9.13;5.27;;;;;;;4.87;49.21;100099.69;4935676;28;97085;-85
2022/04/04 04:07:33;;;;;;;10.87;5.67;;;;;;;4.90;48.96;100096.19;4918507;28;101636;-84
2022/04/04 04:09:58;;;;;;;11.63;6.07;;;;;;;4.87;49.21;100094.50;4902426;28;101846;-83
2022/04/04 04:12:24;;;;;;;10.97;6.10;;;;;;;4.87;49.29;100084.09;4934818;28;97027;-83
2022/04/04 04:14:51;;;;;;;10.13;5.90;;;;;;;4.76;49.20;100065.16;4929599;28;96812;-83
2022/04/04 04:17:24;;;;;;;11.90;5.13;;;;;;;4.71;49.25;100059.16;4920793;28;97445;-83
2022/04/04 04:22:36;;;;;;;11.20;5.33;;;;;;;4.90;49.21;100088.38;4937306;28;96726;-84
2022/04/04 04:25:02;;;;;;;9.27;5.00;;;;;;;4.87;49.19;100084.09;4899023;28;96857;-83
2022/04/04 04:27:28;;;;;;;8.07;5.47;;;;;;;4.90;49.40;100088.38;4892554;28;101928;-83
2022/04/04 04:29:53;;;;;;;10.43;5.17;;;;;;;4.89;49.51;100082.34;4912850;28;101042;-83
2022/04/04 04:32:20;;;;;;;7.40;5.03;;;;;;;4.71;49.26;100056.56;4926103;28;96968;-83
2022/04/04 04:34:48;;;;;;;7.47;4.60;;;;;;;4.85;49.91;100082.38;4923408;28;96934;-84
2022/04/04 04:37:19;;;;;;;8.37;4.63;;;;;;;4.91;49.67;100084.88;4918934;28;101167;-83
2022/04/04 04:39:44;;;;;;;6.77;4.80;;;;;;;4.91;49.44;100095.28;4898814;28;100987;-82
2022/04/04 04:42:10;;;;;;;10.17;5.00;;;;;;;4.88;49.59;100090.13;4884570;28;96912;-85
2022/04/04 04:44:36;;;;;;;9.27;4.67;;;;;;;4.84;49.80;100099.72;4902344;28;97346;-84
2022/04/04 04:47:02;;;;;;;9.47;5.03;;;;;;;4.75;50.19;100084.25;4914445;28;101479;-83
2022/04/04 04:49:28;;;;;;;7.77;5.27;;;;;;;4.75;49.70;100077.31;4924597;28;100986;-84
2022/04/04 04:51:54;;;;;;;7.37;4.87;;;;;;;4.82;49.76;100101.50;4902700;28;97061;-84
2022/04/04 04:54:20;;;;;;;8.63;4.80;;;;;;;4.75;49.89;100092.91;4930699;28;97014;-83
2022/04/04 04:56:46;;;;;;;10.07;5.33;;;;;;;4.79;50.01;100095.47;4941951;28;97984;-84
2022/04/04 04:59:13;;;;;;;10.83;4.80;;;;;;;4.72;49.91;100084.31;4889176;28;100410;-84
2022/04/04 05:01:39;;;;;;;8.33;5.27;;;;;;;4.73;50.36;100086.88;4926060;28;96736;-80
2022/04/04 05:04:04;;;;;;;9.10;4.97;;;;;;;4.44;49.74;100024.03;4915536;28;96919;-80
2022/04/04 05:06:30;;;;;;;9.03;5.50;;;;;;;4.72;49.89;100079.09;4914359;28;101016;-84
2022/04/04 05:08:58;;;;;;;8.07;4.70;;;;;;;4.80;50.13;100086.78;4930924;28;97697;-84
2022/04/04 05:11:23;;;;;;;7.43;4.97;;;;;;;4.81;49.99;100089.38;4913535;28;96653;-85
2022/04/04 05:13:50;;;;;;;13.00;6.07;;;;;;;4.68;49.83;100065.28;4928107;28;97540;-85
2022/04/04 05:16:15;;;;;;;10.63;6.43;;;;;;;5.00;49.78;100095.16;4896197;28;101684;-84
2022/04/04 05:18:44;;;;;;;8.60;5.93;;;;;;;5.09;49.71;100089.84;4914293;28;97382;-83
2022/04/04 05:21:11;;;;;;;11.20;5.77;;;;;;;5.25;49.71;100092.19;4898858;28;97037;-84
2022/04/04 05:23:37;;;;;;;9.33;5.73;;;;;;;5.35;48.46;100094.63;4915238;28;97027;-85
2022/04/04 05:26:04;;;;;;;15.63;6.70;;;;;;;5.48;48.55;100097.03;4898078;28;101208;-84
2022/04/04 05:28:30;;;;;;;11.70;6.07;;;;;;;5.51;48.30;100082.22;4912709;28;101434;-84
2022/04/04 05:30:56;;;;;;;8.67;5.60;;;;;;;5.67;47.64;100088.00;4917581;28;97863;-85
2022/04/04 05:33:22;;;;;;;7.57;5.10;;;;;;;5.73;47.30;100087.91;4944472;28;97172;-85
2022/04/04 05:35:48;;;;;;;8.17;5.27;;;;;;;5.89;46.79;100096.28;4921779;28;101268;-89
2022/04/04 05:38:14;;;;;;;7.83;4.90;;;;;;;6.00;46.02;100093.53;4933999;28;98382;-88
2022/04/04 05:40:41;;;;;;;10.97;5.90;;;;;;;6.01;45.76;100090.88;4901478;28;97083;-88
2022/04/04 05:43:07;;;;;;;11.03;5.77;;;;;;;6.11;45.59;100091.59;4917292;28;96803;-82
2022/04/04 05:45:36;;;;;;;12.67;6.00;;;;;;;6.17;45.51;100086.25;4910101;28;101321;-91
2022/04/04 05:48:02;;;;;;;11.63;6.30;;;;;;;6.17;44.83;100069.72;4925636;28;101193;-91
2022/04/04 05:50:28;;;;;;;12.00;6.70;;;;;;;6.39;45.00;100097.09;4917465;28;97300;-91
2022/04/04 05:52:55;;;;;;;10.93;6.30;;;;;;;6.50;44.70;100092.50;4933141;28;97040;-90
2022/04/04 05:55:20;;;;;;;12.03;6.50;;;;;;;6.60;44.15;100087.09;4943437;28;101500;-90
2022/04/04 05:57:46;;;;;;;11.23;6.40;;;;;;;6.73;43.93;100091.16;4917056;28;100098;-91
2022/04/04 06:00:16;;;;;;;8.93;6.03;;;;;;;6.80;44.02;100087.53;4925694;28;96746;-91
2022/04/04 06:02:44;;;;;;;11.53;6.00;;;;;;;6.76;43.58;100055.44;4921012;28;97428;-91
2022/04/04 06:05:09;;;;;;;9.80;5.70;;;;;;;7.12;43.11;100084.16;4908678;28;101537;-91
2022/04/04 06:07:36;;;;;;;10.73;5.80;;;;;;;7.29;43.00;100085.53;4943845;28;98283;-90
2022/04/04 06:10:04;;;;;;;7.73;5.50;;;;;;;7.43;42.54;100079.06;4941009;28;97167;-91
2022/04/04 06:12:30;;;;;;;13.10;5.73;;;;;;;7.59;42.35;100083.91;4917316;28;97037;-91
2022/04/04 06:14:56;;;;;;;11.80;6.13;;;;;;;7.80;42.27;100087.75;4931502;28;99866;-90
2022/04/04 06:17:21;;;;;;;10.20;5.43;;;;;;;7.97;41.88;100082.91;4962594;28;97330;-88
2022/04/04 06:19:47;;;;;;;11.50;5.65;;;;;;;8.24;41.82;100083.06;4918498;28;96709;-90
2022/04/04 06:22:13;;;;;;;8.67;5.47;;;;;;;8.27;41.52;100046.34;4915932;28;97942;-90
2022/04/04 06:24:39;;;;;;;9.32;5.47;;;;;;;8.77;40.76;100078.03;4891301;28;99734;-89
2022/04/04 06:27:05;;;;;;;9.82;5.22;;;;;;;8.95;40.27;100068.75;4917206;28;99848;-89
2022/04/04 06:29:31;;;;;;;8.18;5.65;;;;;;;9.27;39.80;100086.06;4924600;28;98206;-89
2022/04/04 06:31:58;;;;;;;9.50;5.28;;;;;;;9.44;39.52;100075.03;4936814;28;97009;-93
2022/04/04 06:34:25;;;;;;;7.30;5.22;;;;;;;9.46;39.47;100045.25;4920723;28;98357;-91
2022/04/04 06:36:51;;;;;;;8.52;5.32;;;;;;;9.86;38.85;100074.47;4935616;28;101269;-94
2022/04/04 06:39:18;;;;;;;14.75;6.35;;;;;;;10.07;38.30;100078.97;4917366;28;97159;-88
2022/04/04 06:41:45;;;;;;;25.23;9.30;;;;;;;10.33;38.15;100083.31;4921799;28;97178;-89
2022/04/04 06:44:11;;;;;;;8.82;4.97;;;;;;;10.33;37.65;100057.06;4920694;28;101707;-89
2022/04/04 06:46:37;;;;;;;15.75;5.07;;;;;;;10.55;37.57;100049.22;4919283;28;100456;-88
2022/04/04 06:49:07;;;;;;;10.30;4.93;;;;;;;10.90;37.08;100082.91;4914553;28;97279;-88
2022/04/04 06:51:33;;;;;;;8.30;4.80;;;;;;;10.96;36.66;100064.28;4926986;28;97419;-89
2022/04/04 06:54:00;;;;;;;7.53;4.90;;;;;;;11.05;36.76;100056.91;4936562;28;101793;-90
2022/04/04 06:56:26;;;;;;;9.35;4.43;;;;;;;11.25;36.53;100061.34;4919454;28;101285;-89
2022/04/04 06:58:54;;;;;;;7.60;4.65;;;;;;;11.43;36.40;100075.53;4912906;28;96894;-91
2022/04/04 07:01:20;;;;;;;10.05;4.93;;;;;;;11.64;36.09;100070.28;4935827;28;96995;-83
2022/04/04 07:03:46;;;;;;;9.75;4.70;;;;;;;11.94;35.91;100068.97;4934132;28;97813;-92
2022/04/04 07:06:12;;;;;;;8.15;4.70;;;;;;;12.17;35.59;100056.59;4927797;28;98081;-91
2022/04/04 07:08:38;;;;;;;9.63;5.47;;;;;;;12.20;35.39;100031.00;4937272;28;96789;-90
2022/04/04 07:11:05;;;;;;;9.35;4.72;;;;;;;12.55;34.91;100061.91;4924610;28;96774;-78
2022/04/04 07:13:34;;;;;;;8.60;4.82;;;;;;;12.66;34.32;100051.72;4924616;28;97436;-82
2022/04/04 07:15:59;;;;;;;7.13;5.05;;;;;;;12.74;34.69;100052.22;4919452;28;101586;-79
2022/04/04 07:18:25;;;;;;;7.82;4.32;;;;;;;12.94;34.68;100053.88;4918730;28;97335;-81
2022/04/04 07:20:50;;;;;;;5.80;4.05;;;;;;;13.14;33.99;100037.97;4935280;28;98452;-82
2022/04/04 07:23:16;;;;;;;6.13;4.85;;;;;;;13.40;34.02;100046.41;4907604;28;101227;-78
2022/04/04 07:25:42;;;;;;;8.18;5.28;;;;;;;13.56;33.27;100030.66;4933719;28;99946;-80
2022/04/04 07:28:08;;;;;;;7.35;4.53;;;;;;;13.78;33.70;100035.69;4938797;28;96854;-77
2022/04/04 07:30:34;;;;;;;10.25;4.80;;;;;;;13.88;33.21;100029.00;4932255;28;97465;-80
2022/04/04 07:33:01;;;;;;;7.53;4.20;;;;;;;14.07;33.08;100034.16;4906191;28;98322;-81
2022/04/04 07:35:27;;;;;;;5.95;3.80;;;;;;;14.08;32.75;100000.69;4914183;28;97546;-76
2022/04/04 07:37:53;;;;;;;14.00;4.97;;;;;;;14.48;32.62;100020.50;4933655;28;96781;-82
2022/04/04 07:40:20;;;;;;;6.35;4.20;;;;;;;14.71;32.09;100020.13;4938654;28;96885;-80
2022/04/04 07:42:46;;;;;;;9.88;4.95;;;;;;;14.88;32.19;100018.31;4928481;28;101322;-82
2022/04/04 07:45:14;;;;;;;5.32;4.18;;;;;;;15.07;32.06;100000.50;4917968;28;100050;-80
2022/04/04 07:47:40;;;;;;;10.85;4.90;;;;;;;15.38;31.63;100009.25;4918542;28;96982;-81
2022/04/04 07:50:07;;;;;;;6.78;4.32;;;;;;;15.45;31.25;99993.91;4919812;28;97256;-81
2022/04/04 07:52:33;;;;;;;7.25;4.38;;;;;;;15.78;31.20;100006.94;4916753;28;101639;-81
2022/04/04 07:54:58;;;;;;;8.38;4.60;;;;;;;15.94;30.58;99999.75;4941518;28;101123;-83
2022/04/04 07:57:24;;;;;;;7.50;4.80;;;;;;;15.79;30.27;99963.63;4918434;28;96833;-93
2022/04/04 07:59:53;;;;;;;7.60;4.13;;;;;;;16.01;30.11;99961.38;4919678;28;96842;-82
2022/04/04 08:02:19;;;;;;;8.43;5.05;;;;;;;16.43;30.11;99991.38;4923626;28;97901;-81
2022/04/04 08:04:45;;;;;;;7.63;5.10;;;;;;;16.66;29.33;99975.81;4914895;28;101865;-81
2022/04/04 08:07:12;;;;;;;10.40;4.55;;;;;;;16.78;29.19;99964.44;4911027;28;97327;-81
2022/04/04 08:09:37;;;;;;;10.70;4.88;;;;;;;16.95;29.41;99989.84;4914333;28;97254;-80
2022/04/04 08:12:03;;;;;;;6.15;4.07;;;;;;;16.99;28.91;99980.75;4934624;28;98029;-81
2022/04/04 08:14:29;;;;;;;8.30;4.45;;;;;;;17.18;28.81;99989.19;4923288;28;97448;-82
2022/04/04 08:16:55;;;;;;;8.32;4.68;;;;;;;17.31;28.33;99981.28;4920702;28;96814;-81
2022/04/04 08:19:20;;;;;;;6.60;4.13;;;;;;;17.34;28.00;99964.31;4925489;28;97092;-86
2022/04/04 08:21:47;;;;;;;7.53;4.25;;;;;;;17.14;28.00;99952.38;4933735;28;97420;-81
2022/04/04 08:24:15;;;;;;;9.27;3.65;;;;;;;17.23;27.67;99959.72;4938389;28;101226;-79
2022/04/04 08:26:41;;;;;;;5.97;4.07;;;;;;;17.16;28.29;99956.63;4912176;28;97131;-80
2022/04/04 08:29:09;;;;;;;8.23;3.85;;;;;;;17.47;27.71;99951.03;4923407;28;96881;-80
2022/04/04 08:31:35;;;;;;;7.07;4.70;;;;;;;17.82;27.48;99957.44;4900708;28;101188;-82
2022/04/04 08:34:01;;;;;;;6.78;4.03;;;;;;;17.98;27.26;99964.34;4921847;28;101347;-80
2022/04/04 08:36:27;;;;;;;6.43;4.30;;;;;;;18.29;27.04;99952.38;4897085;28;96999;-78
2022/04/04 08:38:52;;;;;;;9.68;3.83;;;;;;;18.45;26.55;99947.66;4921256;28;96827;-77
2022/04/04 08:41:18;;;;;;;5.63;4.10;;;;;;;18.76;26.50;99943.63;4906727;28;101024;-77
2022/04/04 08:43:44;;;;;;;6.25;4.28;;;;;;;18.91;26.52;99949.63;4902716;28;101025;-77
2022/04/04 08:46:10;;;;;;;7.15;4.47;;;;;;;18.93;26.37;99942.34;4897371;28;97827;-78
2022/04/04 08:48:38;;;;;;;6.45;4.00;;;;;;;19.06;26.12;99941.47;4921686;28;97245;-78
2022/04/04 08:51:09;;;;;;;6.35;3.78;;;;;;;18.97;25.95;99916.41;4917020;28;99500;-79
2022/04/04 08:53:36;;;;;;;6.75;3.40;;;;;;;19.10;25.78;99922.47;4898210;28;97827;-78
2022/04/04 08:56:04;;;;;;;4.18;3.20;;;;;;;19.12;25.32;99899.28;4919380;28;97608;-79
2022/04/04 08:58:30;;;;;;;5.05;3.20;;;;;;;19.40;25.58;99910.44;4900005;28;98327;-78
2022/04/04 09:00:56;;;;;;;6.47;3.35;;;;;;;19.35;25.49;99889.53;4909812;28;101654;-79
2022/04/04 09:03:29;;;;;;;8.50;3.60;;;;;;;19.60;25.00;99904.41;4913906;28;97503;-78
2022/04/04 09:06:00;;;;;;;10.75;4.25;;;;;;;19.73;25.04;99883.06;4912136;28;97073;-78
2022/04/04 09:08:28;;;;;;;5.47;3.73;;;;;;;20.09;25.20;99897.06;4889343;28;96902;-83
2022/04/04 09:10:56;;;;;;;5.57;3.50;;;;;;;20.12;24.55;99889.66;4916675;28;101880;-78
2022/04/04 09:13:24;;;;;;;5.75;3.10;;;;;;;20.11;24.31;99890.63;4921710;28;97967;-78
2022/04/04 09:15:50;;;;;;;7.68;3.53;;;;;;;20.03;24.68;99890.41;4925543;28;97096;-79
2022/04/04 09:18:16;;;;;;;3.97;2.97;;;;;;;20.18;24.52;99879.47;4907486;28;96841;-78
2022/04/04 09:20:49;;;;;;;5.63;3.10;;;;;;;19.92;24.24;99870.94;4924575;28;101260;-78
2022/04/04 09:23:16;;;;;;;9.75;3.30;;;;;;;19.71;24.66;99854.84;4921096;28;101110;-77
2022/04/04 09:25:41;;;;;;;10.95;4.43;;;;;;;19.90;24.72;99873.72;4914274;28;96952;-79
2022/04/04 09:28:18;;;;;;;3.40;2.60;;;;;;;20.01;24.27;99859.53;4946313;28;97007;-78
2022/04/04 09:31:04;;;;;;;5.90;3.13;;;;;;;19.96;23.70;99851.09;4897418;28;101713;-80
2022/04/04 09:33:38;;;;;;;5.25;3.10;;;;;;;19.98;23.77;99854.44;4906683;28;101546;-81
2022/04/04 09:36:04;;;;;;;3.22;2.15;;;;;;;19.95;23.95;99842.22;4932492;28;97162;-79
2022/04/04 09:38:33;;;;;;;6.38;2.90;;;;;;;20.07;23.72;99856.38;4910450;28;96944;-79
2022/04/04 09:41:14;;;;;;;4.65;2.45;;;;;;;19.59;23.32;99849.50;4915123;28;101311;-79
2022/04/04 09:44:00;;;;;;;5.45;3.38;;;;;;;19.00;24.44;99845.19;4923029;28;97947;-79
2022/04/04 09:46:35;;;;;;;4.40;2.47;;;;;;;18.81;24.83;99842.25;4900113;28;96929;-78
2022/04/04 09:49:06;;;;;;;5.85;3.17;;;;;;;18.58;24.65;99835.97;4921329;28;97421;-76
2022/04/04 09:51:52;;;;;;;7.43;4.03;;;;;;;18.16;25.46;99816.94;4924634;28;97439;-75
2022/04/04 09:54:22;;;;;;;7.05;2.25;;;;;;;17.98;25.40;99813.84;4907026;28;98039;-75
2022/04/04 09:56:48;;;;;;;3.35;2.22;;;;;;;17.81;25.67;99791.16;4894917;28;96855;-76
2022/04/04 09:59:15;;;;;;;7.28;2.30;;;;;;;17.56;25.66;99805.28;4916396;28;97764;-78
2022/04/04 10:01:42;;;;;;;4.18;2.25;;;;;;;17.48;25.92;99788.22;4929110;28;97980;-75
2022/04/04 10:04:09;;;;;;;3.72;2.40;;;;;;;17.61;26.19;99808.47;4929853;28;97922;-75
2022/04/04 10:06:36;;;;;;;4.75;2.58;;;;;;;17.78;25.70;99795.84;4913983;28;98183;-75
2022/04/04 10:09:03;;;;;;;5.25;2.65;;;;;;;17.34;25.32;99803.31;4913004;28;97277;-77
2022/04/04 10:11:30;;;;;;;7.80;2.55;;;;;;;17.16;25.92;99792.19;4907365;28;99528;-86
2022/04/04 10:13:57;;;;;;;3.90;2.40;;;;;;;17.18;26.41;99784.97;4942188;28;97492;-76
2022/04/04 10:16:23;;;;;;;3.17;2.50;;;;;;;16.97;26.13;99765.25;4915813;28;97298;-83
2022/04/04 10:18:51;;;;;;;4.05;2.85;;;;;;;16.94;26.44;99789.34;4895736;28;97219;-83
2022/04/04 10:21:18;;;;;;;5.90;2.67;;;;;;;16.80;26.67;99784.13;4917706;28;97968;-83
2022/04/04 10:23:45;;;;;;;3.88;2.78;;;;;;;16.36;27.15;99774.69;4911655;28;97884;-83
2022/04/04 10:26:14;;;;;;;4.50;2.47;;;;;;;16.32;27.15;99774.06;4920129;28;97804;-83
2022/04/04 10:28:39;;;;;;;3.58;2.50;;;;;;;16.19;27.45;99758.13;4906644;28;97747;-83
2022/04/04 10:31:23;;;;;;;4.32;2.53;;;;;;;16.03;27.33;99760.94;4919637;28;97914;-83
2022/04/04 10:33:53;;;;;;;3.58;2.67;;;;;;;15.95;27.28;99749.16;4898762;28;101601;-83
2022/04/04 10:36:23;;;;;;;5.65;2.70;;;;;;;15.74;27.65;99746.94;4917420;28;96758;-83
2022/04/04 10:38:51;;;;;;;4.88;2.42;;;;;;;15.55;28.05;99749.03;4899267;28;96848;-82
2022/04/04 10:41:19;;;;;;;3.15;2.35;;;;;;;15.42;28.33;99721.66;4907774;28;101453;-83
2022/04/04 10:43:47;;;;;;;4.20;3.30;;;;;;;15.31;28.01;99738.22;4909229;28;97729;-82
2022/04/04 10:46:15;;;;;;;3.85;2.53;;;;;;;14.98;28.37;99718.22;4916836;28;96949;-83
2022/04/04 10:48:45;;;;;;;7.10;2.50;;;;;;;14.85;28.59;99733.97;4940385;28;97032;-83
2022/04/04 10:51:18;;;;;;;7.45;2.80;;;;;;;14.67;28.77;99733.31;4920322;28;101429;-83
2022/04/04 10:53:53;;;;;;;5.35;2.35;;;;;;;14.55;28.88;99731.41;4910756;28;101764;-83
2022/04/04 10:56:37;;;;;;;4.43;2.58;;;;;;;14.44;29.47;99731.16;4907680;28;97271;-83
2022/04/04 10:59:15;;;;;;;5.03;2.65;;;;;;;14.35;29.75;99715.88;4904428;28;96869;-84
2022/04/04 11:01:42;;;;;;;4.95;3.03;;;;;;;14.29;29.91;99687.19;4925785;28;101761;-83
2022/04/04 11:04:23;;;;;;;6.57;2.83;;;;;;;14.40;29.66;99700.59;4929726;28;97368;-84
2022/04/04 11:09:46;;;;;;;5.05;2.97;;;;;;;14.24;29.56;99693.56;4918860;28;96816;-84
2022/04/04 11:12:13;;;;;;;8.05;3.08;;;;;;;14.04;30.04;99685.97;4932098;28;100776;-84
2022/04/04 11:14:39;;;;;;;4.28;2.60;;;;;;;13.92;29.94;99695.44;4914740;28;101279;-83
2022/04/04 11:17:08;;;;;;;7.07;2.90;;;;;;;13.79;30.38;99679.50;4917003;28;96816;-84
2022/04/04 11:19:50;;;;;;;2.85;2.53;;;;;;;13.52;30.93;99668.72;4933328;28;96764;-83
2022/04/04 11:22:21;;;;;;;7.53;3.05;;;;;;;13.50;30.89;99649.50;4889402;28;101478;-83
2022/04/04 11:24:55;;;;;;;7.05;2.92;;;;;;;13.48;30.55;99639.97;4916312;28;98104;-84
2022/04/04 11:27:23;;;;;;;5.15;2.60;;;;;;;13.53;30.22;99661.66;4913710;28;97130;-83
2022/04/04 11:29:49;;;;;;;4.28;2.85;;;;;;;13.41;30.40;99660.56;4931931;28;96764;-84
2022/04/04 11:32:24;;;;;;;4.63;2.80;;;;;;;13.28;30.82;99620.84;4916531;28;98177;-83
2022/04/04 11:34:50;;;;;;;5.53;2.90;;;;;;;13.47;29.97;99648.84;4916083;28;101155;-83
2022/04/04 11:37:19;;;;;;;3.60;2.85;;;;;;;13.24;30.51;99624.59;4920217;28;96887;-84